Time;durP1;ratioP1;P1;durP2;ratioP2;P2;SDS_P1;SDS_P2;PMS_P1;PMS_P2;Temp;Humidity;BMP_temperature;BMP_pressure;BME280_temperature;BME280_humidity;BME280_pressure;Samples;Min_cycle;Max_cycle;Signal;HPM_P1;HPM_P2
2021/06/23 00:02:28;;;;;;;3.05;2.10;;;16.60;99.90;;;;;;5051733;28;20213;-75
2021/06/23 00:04:54;;;;;;;5.93;2.20;;;16.70;99.90;;;;;;5051078;28;20684;-80
2021/06/23 00:07:21;;;;;;;8.18;3.60;;;16.60;99.90;;;;;;5051195;28;20709;-79
2021/06/23 00:09:49;;;;;;;7.03;2.92;;;16.70;99.90;;;;;;5050820;28;20210;-76
2021/06/23 00:12:16;;;;;;;13.65;2.60;;;16.70;99.90;;;;;;5051248;28;20635;-76
2021/06/23 00:14:44;;;;;;;4.78;2.92;;;16.50;99.90;;;;;;5050662;28;20203;-76
2021/06/23 00:17:11;;;;;;;6.28;2.55;;;16.40;99.90;;;;;;5051437;28;20293;-83
2021/06/23 00:19:40;;;;;;;5.93;3.28;;;16.30;99.90;;;;;;5050848;28;20207;-83
2021/06/23 00:22:07;;;;;;;8.05;3.30;;;16.30;99.90;;;;;;5051102;28;20229;-74
2021/06/23 00:24:34;;;;;;;10.20;2.90;;;16.40;99.90;;;;;;5051407;28;20207;-75
2021/06/23 00:27:01;;;;;;;8.85;3.08;;;16.50;99.90;;;;;;5051495;28;20234;-74
2021/06/23 00:29:28;;;;;;;9.68;3.17;;;16.50;99.90;;;;;;5051184;28;20207;-74
2021/06/23 00:31:55;;;;;;;7.28;3.33;;;16.50;99.90;;;;;;5050594;28;20276;-73
2021/06/23 00:34:23;;;;;;;4.70;3.22;;;16.40;99.90;;;;;;5050951;28;20213;-75
2021/06/23 00:36:52;;;;;;;6.57;3.33;;;16.30;99.90;;;;;;5050221;28;20309;-75
2021/06/23 00:39:19;;;;;;;4.38;2.70;;;16.30;99.90;;;;;;5051122;28;20207;-76
2021/06/23 00:41:46;;;;;;;4.47;3.47;;;16.40;99.90;;;;;;5050211;28;20211;-80
2021/06/23 00:44:13;;;;;;;6.72;3.08;;;16.30;99.90;;;;;;5051031;28;20199;-76
2021/06/23 00:46:41;;;;;;;5.57;3.03;;;16.20;99.90;;;;;;5050192;28;20221;-77
2021/06/23 00:49:08;;;;;;;5.32;2.30;;;16.30;99.90;;;;;;5050820;28;20207;-77
2021/06/23 00:51:36;;;;;;;9.52;3.63;;;16.30;99.90;;;;;;5050312;28;20207;-76
2021/06/23 00:54:10;;;;;;;6.50;2.95;;;16.30;99.90;;;;;;5050539;28;20604;-78
2021/06/23 00:56:38;;;;;;;3.92;2.65;;;16.20;99.90;;;;;;5050002;28;20582;-78
2021/06/23 00:59:06;;;;;;;2.97;2.33;;;16.30;99.90;;;;;;5050371;28;20728;-77
2021/06/23 01:01:36;;;;;;;8.10;3.53;;;16.30;99.90;;;;;;5051093;28;20218;-81
2021/06/23 01:04:03;;;;;;;10.00;3.60;;;16.30;99.90;;;;;;5052456;28;20568;-82
2021/06/23 01:06:32;;;;;;;6.28;3.00;;;16.30;99.90;;;;;;5053948;28;20207;-75
2021/06/23 01:08:59;;;;;;;4.20;2.22;;;16.20;99.90;;;;;;5050150;28;20241;-75
2021/06/23 01:11:29;;;;;;;4.90;2.65;;;16.30;99.90;;;;;;5049299;28;20240;-81
2021/06/23 01:13:59;;;;;;;9.05;2.97;;;16.20;99.90;;;;;;5049382;28;20215;-80
2021/06/23 01:16:28;;;;;;;3.80;2.30;;;16.30;99.90;;;;;;5049619;28;20202;-82
2021/06/23 01:18:57;;;;;;;7.85;2.90;;;16.30;99.90;;;;;;5049605;28;20301;-78
2021/06/23 01:21:24;;;;;;;7.18;2.88;;;16.30;99.90;;;;;;5049440;28;20213;-77
2021/06/23 01:23:54;;;;;;;5.55;2.63;;;16.30;99.90;;;;;;5049084;28;20218;-75
2021/06/23 01:26:21;;;;;;;2.85;2.55;;;16.40;99.90;;;;;;5049060;28;20217;-76
2021/06/23 01:28:48;;;;;;;6.95;2.13;;;16.40;99.90;;;;;;5048806;28;20725;-77
2021/06/23 01:31:16;;;;;;;7.53;2.88;;;16.40;99.90;;;;;;5049597;28;20206;-78
2021/06/23 01:33:43;;;;;;;6.25;3.25;;;16.40;99.90;;;;;;5048663;28;20630;-79
2021/06/23 01:36:10;;;;;;;6.45;3.15;;;16.40;99.90;;;;;;5049521;28;20203;-79
2021/06/23 01:38:37;;;;;;;5.97;2.15;;;16.50;99.90;;;;;;5048876;28;20207;-78
2021/06/23 01:41:06;;;;;;;4.90;3.25;;;16.50;99.90;;;;;;5049256;28;20203;-78
2021/06/23 01:43:33;;;;;;;6.05;3.15;;;16.50;99.90;;;;;;5049209;28;20203;-76
2021/06/23 01:46:00;;;;;;;5.25;2.17;;;16.50;99.90;;;;;;5049843;28;20641;-76
2021/06/23 01:48:28;;;;;;;8.98;2.80;;;16.40;99.90;;;;;;5049002;28;20230;-81
2021/06/23 01:50:56;;;;;;;7.35;3.10;;;16.40;99.90;;;;;;5049002;28;20415;-81
2021/06/23 01:53:24;;;;;;;14.60;3.42;;;16.20;99.90;;;;;;5048950;28;20211;-76
2021/06/23 01:55:52;;;;;;;5.47;2.35;;;16.20;99.90;;;;;;5048153;28;20215;-76
2021/06/23 01:58:22;;;;;;;4.47;2.20;;;16.10;99.90;;;;;;5049105;28;20619;-81
2021/06/23 02:01:06;;;;;;;5.32;2.60;;;16.10;99.90;;;;;;5048504;28;20630;-81
2021/06/23 02:03:48;;;;;;;9.40;2.83;;;16.10;99.90;;;;;;5049270;28;20276;-80
2021/06/23 02:06:40;;;;;;;9.73;3.13;;;16.30;99.90;;;;;;5048839;28;20253;-79
2021/06/23 02:09:16;;;;;;;7.72;2.72;;;16.30;99.90;;;;;;5007008;28;1197831;-78
2021/06/23 02:11:45;;;;;;;8.77;2.47;;;16.40;99.90;;;;;;5049496;28;20625;-80
2021/06/23 02:14:39;;;;;;;6.63;2.83;;;16.30;99.90;;;;;;5049805;28;20621;-78
2021/06/23 02:17:09;;;;;;;6.97;2.88;;;16.30;99.90;;;;;;5038556;28;20244;-78
2021/06/23 02:19:41;;;;;;;4.00;2.60;;;16.30;99.90;;;;;;5049574;28;20210;-78
2021/06/23 02:22:14;;;;;;;3.67;2.38;;;16.30;99.90;;;;;;5049885;28;20622;-79
2021/06/23 02:24:43;;;;;;;8.32;3.33;;;16.30;99.90;;;;;;5052851;28;20256;-75
2021/06/23 02:27:12;;;;;;;7.53;3.30;;;16.20;99.90;;;;;;5053225;28;20627;-75
2021/06/23 02:29:41;;;;;;;2.65;2.33;;;16.20;99.90;;;;;;5052837;28;20214;-75
2021/06/23 02:32:13;;;;;;;11.35;3.80;;;16.10;99.90;;;;;;5039941;28;20237;-75
2021/06/23 02:34:42;;;;;;;6.13;2.70;;;16.10;99.90;;;;;;5052998;28;20207;-76
2021/06/23 02:37:11;;;;;;;4.53;2.38;;;16.20;99.90;;;;;;5052877;28;20757;-75
2021/06/23 02:39:38;;;;;;;7.35;2.28;;;16.30;99.90;;;;;;5052521;28;20207;-75
2021/06/23 02:42:06;;;;;;;6.55;2.60;;;16.40;99.90;;;;;;5053116;28;20207;-76
2021/06/23 02:44:34;;;;;;;3.58;1.92;;;16.40;99.90;;;;;;5053205;28;20744;-75
2021/06/23 02:47:03;;;;;;;6.05;3.03;;;16.40;99.90;;;;;;5053086;28;20219;-76
2021/06/23 02:49:31;;;;;;;4.75;2.00;;;16.40;99.90;;;;;;5053031;28;20600;-77
2021/06/23 02:51:59;;;;;;;9.02;2.90;;;16.40;99.90;;;;;;5050981;28;20211;-76
2021/06/23 02:54:27;;;;;;;5.90;2.50;;;16.40;99.90;;;;;;5052570;28;20993;-82
2021/06/23 02:56:55;;;;;;;7.20;2.08;;;16.40;99.90;;;;;;5054509;28;20206;-83
2021/06/23 02:59:22;;;;;;;5.88;2.50;;;16.50;99.90;;;;;;5053159;28;20650;-75
2021/06/23 03:01:50;;;;;;;7.72;2.28;;;16.50;99.90;;;;;;5052250;28;20264;-75
2021/06/23 03:04:18;;;;;;;6.57;2.70;;;16.30;99.90;;;;;;5052414;28;20670;-83
2021/06/23 03:06:46;;;;;;;5.95;2.85;;;16.30;99.90;;;;;;5052034;28;20207;-83
2021/06/23 03:09:13;;;;;;;4.45;2.85;;;16.40;99.90;;;;;;5051948;28;20800;-76
2021/06/23 03:11:42;;;;;;;10.65;3.00;;;16.40;99.90;;;;;;5052414;28;20214;-75
2021/06/23 03:14:10;;;;;;;7.38;2.35;;;16.40;99.90;;;;;;5052404;28;20210;-75
2021/06/23 03:16:38;;;;;;;5.30;2.45;;;16.40;99.90;;;;;;5051946;28;20259;-75
2021/06/23 03:19:05;;;;;;;10.40;2.38;;;16.30;99.90;;;;;;5052260;28;20207;-75
2021/06/23 03:21:34;;;;;;;6.35;2.65;;;16.30;99.90;;;;;;5052636;28;20260;-75
2021/06/23 03:24:01;;;;;;;4.25;2.67;;;16.10;99.90;;;;;;5052590;28;20720;-85
2021/06/23 03:26:29;;;;;;;7.43;2.75;;;16.20;99.90;;;;;;5051881;28;20617;-76
2021/06/23 03:28:56;;;;;;;9.90;2.63;;;16.20;99.90;;;;;;5051797;28;20234;-75
2021/06/23 03:31:24;;;;;;;3.95;2.38;;;16.20;99.90;;;;;;5051782;28;20214;-83
2021/06/23 03:33:51;;;;;;;9.75;2.75;;;16.10;99.90;;;;;;5050799;28;20740;-83
2021/06/23 03:36:19;;;;;;;10.68;2.78;;;16.10;99.90;;;;;;5051367;28;20298;-82
2021/06/23 03:38:47;;;;;;;4.97;2.33;;;16.10;99.90;;;;;;5052008;28;20297;-81
2021/06/23 03:41:14;;;;;;;11.02;3.15;;;16.20;99.90;;;;;;5052173;28;20629;-75
2021/06/23 03:43:41;;;;;;;3.05;2.65;;;16.30;99.90;;;;;;5051566;28;20214;-75
2021/06/23 03:46:08;;;;;;;3.38;2.42;;;16.40;99.90;;;;;;5052010;28;20203;-77
2021/06/23 03:48:35;;;;;;;9.05;2.97;;;16.20;99.90;;;;;;5051404;28;20242;-76
2021/06/23 03:51:03;;;;;;;4.50;2.17;;;16.00;99.90;;;;;;5052052;28;20218;-79
2021/06/23 03:53:30;;;;;;;5.22;2.97;;;16.00;99.90;;;;;;5051899;28;20257;-77
2021/06/23 03:55:58;;;;;;;3.45;2.65;;;16.10;99.90;;;;;;5051625;28;20207;-77
2021/06/23 03:58:25;;;;;;;5.20;2.28;;;16.10;99.90;;;;;;5051596;28;20215;-78
2021/06/23 04:00:52;;;;;;;4.43;2.05;;;16.10;99.90;;;;;;5050821;28;20555;-78
2021/06/23 04:03:20;;;;;;;4.95;2.65;;;16.10;99.90;;;;;;5046165;28;20207;-81
2021/06/23 04:05:48;;;;;;;7.38;2.25;;;16.00;99.90;;;;;;5049673;28;20210;-81
2021/06/23 04:08:15;;;;;;;5.25;2.10;;;15.90;99.90;;;;;;5051688;28;20226;-79
2021/06/23 04:10:42;;;;;;;4.65;2.42;;;16.00;99.90;;;;;;5050848;28;20211;-81
2021/06/23 04:13:10;;;;;;;4.45;2.58;;;15.90;99.90;;;;;;5051637;28;20265;-79
2021/06/23 04:15:38;;;;;;;5.88;2.45;;;15.90;99.90;;;;;;5050751;28;20210;-80
2021/06/23 04:18:05;;;;;;;2.67;2.42;;;15.80;99.90;;;;;;5051974;28;20249;-77
2021/06/23 04:20:32;;;;;;;6.97;3.10;;;15.70;99.90;;;;;;5050914;28;20207;-83
2021/06/23 04:22:59;;;;;;;9.27;2.92;;;15.70;99.90;;;;;;5050954;28;20670;-77
2021/06/23 04:25:26;;;;;;;4.60;3.17;;;15.60;99.90;;;;;;5047112;28;20666;-76
2021/06/23 04:27:53;;;;;;;5.03;2.88;;;15.60;99.90;;;;;;5049589;28;20744;-76
2021/06/23 04:30:22;;;;;;;3.13;2.20;;;15.70;99.90;;;;;;5050396;28;20288;-80
2021/06/23 04:32:49;;;;;;;5.60;2.58;;;15.60;99.90;;;;;;5049705;28;20290;-83
2021/06/23 04:35:16;;;;;;;4.45;2.55;;;15.60;99.90;;;;;;5061361;28;20245;-78
2021/06/23 04:37:45;;;;;;;5.75;3.03;;;15.70;99.90;;;;;;5056716;28;20206;-78
2021/06/23 04:40:14;;;;;;;6.35;3.80;;;15.60;99.90;;;;;;5050974;28;20207;-77
2021/06/23 04:42:43;;;;;;;5.25;2.30;;;15.70;99.90;;;;;;5050251;28;20652;-82
2021/06/23 04:45:13;;;;;;;4.38;2.47;;;15.90;99.90;;;;;;5050986;28;20211;-82
2021/06/23 04:47:42;;;;;;;5.28;2.92;;;16.00;99.90;;;;;;5050774;28;20234;-80
2021/06/23 04:50:11;;;;;;;7.00;2.40;;;15.90;99.90;;;;;;5044574;28;20227;-80
2021/06/23 04:52:38;;;;;;;8.45;3.58;;;16.20;99.90;;;;;;5050472;28;20218;-78
2021/06/23 04:55:07;;;;;;;8.90;3.13;;;16.30;99.90;;;;;;5044581;28;20637;-77
2021/06/23 04:57:38;;;;;;;4.57;2.58;;;16.30;99.90;;;;;;5050489;28;20659;-77
2021/06/23 05:00:06;;;;;;;5.32;2.85;;;16.40;99.90;;;;;;5051023;28;20235;-76
2021/06/23 05:02:35;;;;;;;4.60;2.78;;;16.50;99.90;;;;;;5045443;28;20210;-78
2021/06/23 05:05:06;;;;;;;9.48;2.22;;;16.50;99.90;;;;;;5049190;28;20221;-77
2021/06/23 05:07:34;;;;;;;5.78;3.47;;;16.50;99.90;;;;;;5049804;28;20218;-77
2021/06/23 05:10:01;;;;;;;3.67;2.88;;;16.80;99.90;;;;;;5049607;28;20285;-79
2021/06/23 05:12:29;;;;;;;7.97;4.10;;;16.80;99.90;;;;;;5055921;28;20258;-76
2021/06/23 05:14:56;;;;;;;2.83;2.33;;;17.00;99.90;;;;;;5050653;28;20214;-79
2021/06/23 05:17:25;;;;;;;4.47;2.28;;;17.00;99.90;;;;;;5063886;28;20210;-77
2021/06/23 05:19:52;;;;;;;3.00;2.45;;;17.10;99.90;;;;;;5050179;28;20214;-77
2021/06/23 05:22:21;;;;;;;4.40;2.28;;;17.10;99.90;;;;;;5049968;28;20629;-76
2021/06/23 05:24:48;;;;;;;6.00;2.72;;;17.20;99.90;;;;;;5049849;28;20268;-77
2021/06/23 05:27:15;;;;;;;5.18;2.63;;;17.10;99.90;;;;;;5049251;28;20738;-76
2021/06/23 05:29:43;;;;;;;4.22;2.60;;;17.10;99.90;;;;;;5049721;28;20230;-79
2021/06/23 05:32:10;;;;;;;5.85;2.40;;;17.20;99.90;;;;;;5057233;28;20202;-76
2021/06/23 05:34:37;;;;;;;8.45;2.83;;;17.30;99.90;;;;;;5051169;28;20203;-77
2021/06/23 05:37:05;;;;;;;3.47;2.13;;;17.50;99.90;;;;;;5047327;28;20203;-77
2021/06/23 05:39:33;;;;;;;5.35;2.88;;;17.60;99.90;;;;;;5056738;28;20206;-77
2021/06/23 05:42:00;;;;;;;5.20;2.25;;;17.90;99.90;;;;;;5050648;28;20203;-78
2021/06/23 05:44:28;;;;;;;3.00;2.30;;;18.10;99.90;;;;;;5049941;28;20669;-78
2021/06/23 05:46:55;;;;;;;3.05;2.58;;;18.00;99.90;;;;;;5049776;28;20553;-78
2021/06/23 05:49:22;;;;;;;8.05;2.70;;;17.90;99.90;;;;;;5049619;28;20230;-79
2021/06/23 05:51:50;;;;;;;2.53;1.90;;;18.10;99.90;;;;;;5049769;28;20275;-78
2021/06/23 05:54:16;;;;;;;9.95;2.53;;;18.40;99.90;;;;;;5048464;28;20789;-77
2021/06/23 05:56:45;;;;;;;3.90;2.25;;;18.20;99.90;;;;;;5052381;28;20709;-76
2021/06/23 05:59:12;;;;;;;4.78;2.53;;;18.00;99.90;;;;;;5053511;28;20218;-78
2021/06/23 06:01:39;;;;;;;3.17;2.10;;;17.90;99.90;;;;;;5054298;28;20219;-78
2021/06/23 06:04:06;;;;;;;3.78;2.33;;;17.70;99.90;;;;;;5053499;28;20211;-76
2021/06/23 06:06:33;;;;;;;5.10;2.75;;;17.70;99.90;;;;;;5054005;28;20207;-77
2021/06/23 06:09:00;;;;;;;2.67;2.38;;;17.70;99.90;;;;;;5053667;28;20288;-77
2021/06/23 06:11:27;;;;;;;3.83;2.50;;;17.60;99.90;;;;;;5053407;28;20202;-77
2021/06/23 06:13:56;;;;;;;3.75;1.92;;;17.60;99.90;;;;;;5048256;28;20643;-77
2021/06/23 06:16:23;;;;;;;3.65;2.42;;;17.70;99.90;;;;;;5049467;28;20203;-76
2021/06/23 06:18:50;;;;;;;4.68;2.35;;;17.80;99.90;;;;;;5053002;28;20675;-77
2021/06/23 06:21:17;;;;;;;4.05;2.38;;;17.70;99.90;;;;;;5053485;28;20206;-79
2021/06/23 06:23:44;;;;;;;5.07;2.75;;;17.70;99.90;;;;;;5053235;28;20300;-82
2021/06/23 06:26:11;;;;;;;7.20;2.90;;;17.70;99.90;;;;;;5052558;28;20207;-77
2021/06/23 06:28:39;;;;;;;4.88;2.20;;;17.50;99.90;;;;;;5050178;28;20276;-77
2021/06/23 06:31:08;;;;;;;2.45;2.20;;;17.40;99.90;;;;;;5050603;28;20237;-78
2021/06/23 06:33:35;;;;;;;3.55;2.42;;;17.30;99.90;;;;;;5043201;28;20215;-75
2021/06/23 06:36:04;;;;;;;3.08;2.55;;;17.30;99.90;;;;;;5052202;28;20629;-76
2021/06/23 06:38:31;;;;;;;2.83;2.05;;;17.30;99.90;;;;;;5052281;28;20207;-75
2021/06/23 06:40:58;;;;;;;4.55;2.50;;;17.10;99.90;;;;;;5052490;28;20265;-76
2021/06/23 06:43:25;;;;;;;5.78;2.58;;;17.10;99.90;;;;;;5053026;28;20672;-76
2021/06/23 06:45:52;;;;;;;7.15;2.50;;;17.10;99.90;;;;;;5052786;28;20265;-77
2021/06/23 06:48:21;;;;;;;6.07;2.80;;;17.00;99.90;;;;;;5052976;28;20207;-75
2021/06/23 06:50:49;;;;;;;9.60;2.90;;;17.00;99.90;;;;;;5052600;28;20246;-75
2021/06/23 06:53:16;;;;;;;5.55;2.72;;;17.00;99.90;;;;;;5052667;28;20207;-76
2021/06/23 06:55:43;;;;;;;5.75;2.83;;;17.00;99.90;;;;;;5052270;28;20280;-76
2021/06/23 06:58:10;;;;;;;10.40;3.05;;;17.00;99.90;;;;;;5050972;28;20203;-74
2021/06/23 07:00:38;;;;;;;4.78;2.67;;;17.00;99.90;;;;;;5049877;28;20276;-77
2021/06/23 07:03:05;;;;;;;7.32;2.30;;;17.10;99.90;;;;;;5043943;28;20295;-72
2021/06/23 07:05:34;;;;;;;3.50;3.10;;;17.20;99.90;;;;;;5050938;28;20632;-76
2021/06/23 07:08:01;;;;;;;5.55;2.97;;;17.40;99.90;;;;;;5050804;28;20618;-75
2021/06/23 07:10:28;;;;;;;6.07;2.63;;;17.50;99.90;;;;;;5051981;28;20288;-76
2021/06/23 07:12:55;;;;;;;4.00;2.65;;;17.50;99.90;;;;;;5046238;28;20211;-75
2021/06/23 07:15:22;;;;;;;4.40;2.72;;;17.70;99.90;;;;;;5050512;28;20741;-76
2021/06/23 07:17:51;;;;;;;3.42;2.75;;;17.90;99.90;;;;;;5051682;28;20686;-76
2021/06/23 07:20:18;;;;;;;3.17;2.22;;;18.10;99.90;;;;;;5048397;28;20688;-76
2021/06/23 07:22:47;;;;;;;4.97;2.50;;;18.40;99.90;;;;;;5051674;28;20202;-74
2021/06/23 07:25:14;;;;;;;2.33;2.17;;;18.50;99.90;;;;;;5051625;28;20892;-74
2021/06/23 07:27:41;;;;;;;4.57;2.88;;;18.60;99.90;;;;;;5051292;28;20211;-75
2021/06/23 07:30:10;;;;;;;3.60;2.65;;;18.60;99.90;;;;;;5051452;28;20306;-74
2021/06/23 07:32:44;;;;;;;3.20;1.95;;;18.70;99.90;;;;;;5051510;28;20211;-74
2021/06/23 07:37:48;;;;;;;3.83;2.45;;;18.50;99.90;;;;;;5046082;28;20234;-76
2021/06/23 07:40:16;;;;;;;4.18;2.17;;;18.50;99.90;;;;;;5051840;28;20210;-75
2021/06/23 07:42:43;;;;;;;4.57;2.67;;;18.60;99.90;;;;;;5050868;28;20225;-72
2021/06/23 07:45:13;;;;;;;6.43;2.67;;;18.70;99.90;;;;;;5043653;28;20592;-74
2021/06/23 07:47:41;;;;;;;3.35;2.05;;;18.70;99.90;;;;;;5046068;28;20231;-71
2021/06/23 07:50:10;;;;;;;5.03;2.70;;;18.80;99.90;;;;;;5045951;28;20230;-71
2021/06/23 07:52:43;;;;;;;2.88;2.67;;;19.00;99.90;;;;;;5042301;28;20215;-70
2021/06/23 07:55:41;;;;;;;2.38;2.17;;;19.20;99.90;;;;;;5050269;28;20285;-70
2021/06/23 08:09:14;;;;;;;3.08;2.42;;;18.70;99.90;;;;;;5040383;28;20590;-73
2021/06/23 08:11:45;;;;;;;3.10;1.95;;;18.80;99.90;;;;;;5050733;28;20237;-71
2021/06/23 08:14:14;;;;;;;1.67;1.50;;;18.80;99.90;;;;;;5050179;28;20595;-72
2021/06/23 08:16:41;;;;;;;2.40;2.20;;;18.80;99.90;;;;;;5048639;28;20217;-72
2021/06/23 08:19:08;;;;;;;3.15;2.47;;;18.80;99.90;;;;;;5047962;28;20302;-71
2021/06/23 08:21:35;;;;;;;2.70;1.70;;;19.10;99.90;;;;;;5050097;28;20219;-71
2021/06/23 08:24:02;;;;;;;3.05;1.70;;;19.30;99.90;;;;;;5050732;28;20210;-73
2021/06/23 08:26:29;;;;;;;4.13;1.95;;;19.60;99.90;;;;;;5050817;28;20268;-71
2021/06/23 08:28:57;;;;;;;2.13;2.03;;;19.60;99.90;;;;;;5050278;28;20682;-72
2021/06/23 08:31:24;;;;;;;1.92;1.65;;;19.50;99.90;;;;;;5050792;28;20754;-74
2021/06/23 08:33:53;;;;;;;7.45;2.13;;;19.30;99.90;;;;;;5049870;28;20202;-72
2021/06/23 08:36:20;;;;;;;5.65;2.45;;;18.90;99.90;;;;;;5049090;28;20268;-73
2021/06/23 08:38:47;;;;;;;1.83;1.73;;;18.70;99.90;;;;;;5050645;28;20203;-71
2021/06/23 08:41:15;;;;;;;4.90;2.13;;;18.60;99.90;;;;;;5050278;28;20277;-72
2021/06/23 08:43:42;;;;;;;4.28;2.22;;;18.60;99.90;;;;;;5050337;28;20264;-73
2021/06/23 08:46:10;;;;;;;3.60;2.03;;;18.50;99.90;;;;;;5050501;28;20207;-71
2021/06/23 08:48:39;;;;;;;3.00;2.75;;;18.50;99.90;;;;;;5050622;28;20210;-73
2021/06/23 08:51:08;;;;;;;3.45;2.03;;;18.50;99.90;;;;;;5050125;28;20230;-74
2021/06/23 08:53:35;;;;;;;3.50;1.92;;;18.30;99.90;;;;;;5048377;28;20206;-72
2021/06/23 08:56:03;;;;;;;5.68;2.13;;;18.20;99.90;;;;;;5046283;28;20295;-73
2021/06/23 08:58:30;;;;;;;2.97;2.10;;;17.90;99.90;;;;;;5049344;28;20294;-71
2021/06/23 09:00:57;;;;;;;5.82;1.88;;;17.90;99.90;;;;;;5049813;28;20621;-75
2021/06/23 09:03:26;;;;;;;4.38;2.17;;;17.90;99.90;;;;;;5050559;28;20754;-75
2021/06/23 09:05:54;;;;;;;2.75;1.98;;;18.00;99.90;;;;;;5049644;28;20628;-72
2021/06/23 09:08:33;;;;;;;2.88;1.50;;;18.10;99.90;;;;;;5049930;28;20202;-73
2021/06/23 09:11:02;;;;;;;3.15;2.55;;;18.20;99.90;;;;;;5050054;28;20280;-74
2021/06/23 09:13:30;;;;;;;4.38;3.05;;;18.20;99.90;;;;;;5050091;28;20206;-74
2021/06/23 09:15:59;;;;;;;4.00;2.55;;;18.30;99.90;;;;;;5049842;28;20203;-73
2021/06/23 09:18:29;;;;;;;5.60;2.33;;;18.30;99.90;;;;;;5050483;28;20237;-74
2021/06/23 09:21:00;;;;;;;7.70;3.90;;;18.30;99.90;;;;;;5050129;28;20214;-73
2021/06/23 09:23:42;;;;;;;4.18;3.75;;;18.40;99.90;;;;;;5050406;28;20206;-74
2021/06/23 09:26:18;;;;;;;4.82;2.50;;;18.60;99.90;;;;;;5050134;28;20254;-73
2021/06/23 09:28:46;;;;;;;1.88;1.60;;;18.70;99.90;;;;;;5050007;28;20211;-72
2021/06/23 09:31:13;;;;;;;5.25;3.97;;;18.80;99.90;;;;;;5049588;28;20272;-72
2021/06/23 09:33:41;;;;;;;2.72;1.80;;;19.20;99.90;;;;;;5043819;28;20207;-72
2021/06/23 09:36:11;;;;;;;2.33;1.88;;;19.70;99.90;;;;;;5050908;28;20685;-74
2021/06/23 09:38:41;;;;;;;4.93;2.38;;;20.20;99.90;;;;;;5053594;28;20214;-72
2021/06/23 09:41:22;;;;;;;6.93;1.70;;;20.50;99.90;;;;;;5053721;28;20207;-72
2021/06/23 09:43:51;;;;;;;4.68;2.20;;;20.20;99.90;;;;;;5053761;28;20251;-72
2021/06/23 09:46:21;;;;;;;7.03;1.67;;;20.30;99.90;;;;;;5053855;28;20662;-72
2021/06/23 09:48:50;;;;;;;3.03;1.38;;;20.40;99.90;;;;;;5052388;28;20257;-73
2021/06/23 09:51:19;;;;;;;1.67;1.58;;;20.30;99.90;;;;;;5049834;28;20245;-73
2021/06/23 09:53:47;;;;;;;1.55;1.25;;;20.50;99.90;;;;;;5052572;28;20777;-74
2021/06/23 09:56:29;;;;;;;1.63;1.52;;;20.60;99.90;;;;;;5053597;28;20207;-73
2021/06/23 09:58:56;;;;;;;1.70;1.52;;;20.80;99.90;;;;;;5047442;28;20216;-72
2021/06/23 10:01:25;;;;;;;2.70;1.60;;;20.80;99.90;;;;;;5049725;28;20670;-73
2021/06/23 10:04:01;;;;;;;2.05;1.15;;;21.10;99.90;;;;;;5048936;28;20257;-72
2021/06/23 10:06:30;;;;;;;1.58;1.15;;;21.50;99.90;;;;;;5053445;28;20293;-72
2021/06/23 10:09:15;;;;;;;2.40;1.40;;;21.10;99.90;;;;;;5052663;28;20223;-71
2021/06/23 10:11:42;;;;;;;4.43;2.08;;;20.90;99.90;;;;;;5052457;28;20226;-74
2021/06/23 10:14:11;;;;;;;4.00;1.65;;;20.80;99.90;;;;;;5051195;28;20283;-73
2021/06/23 10:16:39;;;;;;;4.10;1.70;;;20.70;99.90;;;;;;5051126;28;20207;-73
2021/06/23 10:19:09;;;;;;;1.40;1.30;;;21.10;99.90;;;;;;5053400;28;20289;-72
2021/06/23 10:21:37;;;;;;;3.10;1.83;;;21.10;99.90;;;;;;5051838;28;20210;-74
2021/06/23 10:24:06;;;;;;;3.10;1.50;;;20.90;99.90;;;;;;5053681;28;20264;-76
2021/06/23 10:26:34;;;;;;;3.13;2.10;;;21.00;99.90;;;;;;5052240;28;20755;-77
2021/06/23 10:29:03;;;;;;;3.10;2.05;;;20.90;99.90;;;;;;5052624;28;20199;-76
2021/06/23 10:31:30;;;;;;;2.88;1.95;;;21.40;99.90;;;;;;5053298;28;20656;-79
2021/06/23 10:33:57;;;;;;;2.78;1.45;;;21.40;99.90;;;;;;5049214;28;20219;-78
2021/06/23 10:36:26;;;;;;;3.08;1.70;;;21.40;99.90;;;;;;5045262;28;20215;-76
2021/06/23 10:38:55;;;;;;;3.42;1.40;;;21.60;99.90;;;;;;5048853;28;20615;-82
2021/06/23 10:41:23;;;;;;;2.25;1.70;;;22.00;99.90;;;;;;5051672;28;20243;-76
2021/06/23 10:44:21;;;;;;;3.30;1.80;;;22.20;99.90;;;;;;5047208;28;20211;-79
2021/06/23 10:46:51;;;;;;;1.60;1.50;;;22.00;99.90;;;;;;5036759;28;20261;-79
2021/06/23 10:49:38;;;;;;;1.52;1.38;;;22.10;99.90;;;;;;5052364;28;20210;-79
2021/06/23 10:52:35;;;;;;;1.45;1.35;;;22.00;99.90;;;;;;5047451;28;20706;-80
2021/06/23 10:55:04;;;;;;;2.35;1.40;;;22.10;99.90;;;;;;5034112;28;20678;-86
2021/06/23 10:57:33;;;;;;;2.58;1.20;;;22.00;99.90;;;;;;5051911;28;20728;-77
2021/06/23 11:00:01;;;;;;;8.20;5.60;;;21.90;99.90;;;;;;5045967;28;20252;-78
2021/06/23 11:02:34;;;;;;;13.95;9.02;;;22.10;99.90;;;;;;5052116;28;20261;-75
2021/06/23 11:05:10;;;;;;;133.43;107.82;;;21.90;99.90;;;;;;5052480;28;20209;-76
2021/06/23 11:07:40;;;;;;;3.88;2.30;;;21.80;99.90;;;;;;5050070;28;20223;-75
2021/06/23 11:10:26;;;;;;;3.75;3.35;;;21.70;99.90;;;;;;5050790;28;20218;-75
2021/06/23 11:12:55;;;;;;;3.65;3.35;;;21.50;99.90;;;;;;5040920;28;20198;-77
2021/06/23 11:15:25;;;;;;;3.70;2.05;;;21.20;99.90;;;;;;5049839;28;20210;-76
2021/06/23 11:17:55;;;;;;;2.17;1.38;;;21.00;99.90;;;;;;5047342;28;20203;-76
2021/06/23 11:20:42;;;;;;;3.70;2.10;;;21.10;99.90;;;;;;5052372;28;20207;-75
2021/06/23 11:23:55;;;;;;;1.55;1.45;;;21.10;99.90;;;;;;5049950;28;20234;-76
2021/06/23 11:27:04;;;;;;;3.20;1.80;;;21.10;99.90;;;;;;5028052;28;20219;-76
2021/06/23 11:29:36;;;;;;;1.75;1.10;;;21.10;99.90;;;;;;5049323;28;20203;-73
2021/06/23 11:32:08;;;;;;;4.72;1.98;;;21.20;99.90;;;;;;5051934;28;20268;-74
2021/06/23 11:34:55;;;;;;;1.48;1.30;;;21.40;99.90;;;;;;5046848;28;20264;-73
2021/06/23 11:37:31;;;;;;;3.90;1.30;;;21.70;99.90;;;;;;5047977;28;20249;-74
2021/06/23 11:40:18;;;;;;;3.85;1.77;;;22.00;99.90;;;;;;5044312;28;20285;-76
2021/06/23 11:42:45;;;;;;;1.63;0.93;;;22.40;99.90;;;;;;5040965;28;20194;-76
2021/06/23 11:45:14;;;;;;;5.07;1.98;;;22.40;99.90;;;;;;5043928;28;20715;-75
2021/06/23 11:47:41;;;;;;;1.50;0.90;;;22.20;99.90;;;;;;5046987;28;20260;-76
2021/06/23 11:50:13;;;;;;;1.92;0.93;;;21.90;99.90;;;;;;5047880;28;20230;-75
2021/06/23 11:52:41;;;;;;;1.17;1.15;;;21.90;99.90;;;;;;5047777;28;20199;-74
2021/06/23 11:55:12;;;;;;;1.98;1.23;;;21.90;99.90;;;;;;5042954;28;20666;-73
2021/06/23 11:57:42;;;;;;;3.13;2.00;;;21.70;99.90;;;;;;5050325;28;20214;-73
2021/06/23 12:00:11;;;;;;;4.70;1.60;;;21.60;99.90;;;;;;5050899;28;20214;-73
2021/06/23 12:02:38;;;;;;;3.60;1.40;;;21.60;99.90;;;;;;5051143;28;20210;-73
2021/06/23 12:05:06;;;;;;;3.13;1.55;;;21.70;99.90;;;;;;5051069;28;20203;-73
2021/06/23 12:07:34;;;;;;;2.90;0.88;;;21.80;99.90;;;;;;5046256;28;20215;-73
2021/06/23 12:10:02;;;;;;;0.90;0.73;;;21.80;99.90;;;;;;5045350;28;20222;-73
2021/06/23 12:12:29;;;;;;;1.20;0.75;;;21.70;99.90;;;;;;5048261;28;20238;-73
2021/06/23 12:14:58;;;;;;;1.25;1.15;;;22.00;99.90;;;;;;5050208;28;20285;-72
2021/06/23 12:17:25;;;;;;;1.33;0.77;;;21.90;99.90;;;;;;5051178;28;20587;-72
2021/06/23 12:19:53;;;;;;;1.02;0.85;;;22.00;99.90;;;;;;5050492;28;20199;-74
2021/06/23 12:22:20;;;;;;;2.05;1.25;;;21.90;99.90;;;;;;5050742;28;20739;-74
2021/06/23 12:24:48;;;;;;;4.00;1.40;;;21.60;99.90;;;;;;5050464;28;20256;-73
2021/06/23 12:27:15;;;;;;;3.08;1.48;;;21.60;99.90;;;;;;5050748;28;20590;-74
2021/06/23 12:29:42;;;;;;;2.05;1.27;;;21.50;99.90;;;;;;5049542;28;20203;-73
2021/06/23 12:32:10;;;;;;;1.02;1.02;;;21.60;99.90;;;;;;5045672;28;20230;-75
2021/06/23 12:34:37;;;;;;;2.33;0.93;;;21.70;99.90;;;;;;5042822;28;20203;-74
2021/06/23 12:37:05;;;;;;;4.10;1.20;;;21.80;99.90;;;;;;5050889;28;20203;-73
2021/06/23 12:39:32;;;;;;;3.05;0.80;;;22.00;99.90;;;;;;5045714;28;20230;-73
2021/06/23 12:41:59;;;;;;;2.90;0.75;;;22.00;99.90;;;;;;5050338;28;20218;-74
2021/06/23 12:44:26;;;;;;;1.38;0.63;;;21.90;99.90;;;;;;5050660;28;20211;-73
2021/06/23 12:46:54;;;;;;;0.50;0.50;;;21.70;99.90;;;;;;5050069;28;20207;-71
2021/06/23 12:49:24;;;;;;;2.03;1.17;;;21.60;99.90;;;;;;5038623;28;20208;-72
2021/06/23 12:51:51;;;;;;;2.55;0.88;;;21.60;99.90;;;;;;5049909;28;20222;-72
2021/06/23 12:54:18;;;;;;;2.10;1.00;;;21.60;99.90;;;;;;5050363;28;20202;-72
2021/06/23 12:56:45;;;;;;;1.35;1.10;;;21.60;99.90;;;;;;5049863;28;20211;-73
2021/06/23 12:59:12;;;;;;;1.05;0.95;;;21.60;99.90;;;;;;5050485;28;20237;-73
2021/06/23 13:01:39;;;;;;;0.77;0.77;;;21.30;99.90;;;;;;5049611;28;20743;-73
2021/06/23 13:04:06;;;;;;;0.70;0.68;;;21.50;99.90;;;;;;5049931;28;20724;-74
2021/06/23 13:06:36;;;;;;;2.17;1.23;;;21.40;99.90;;;;;;5050310;28;20618;-74
2021/06/23 13:09:04;;;;;;;1.73;1.08;;;21.10;99.90;;;;;;5049986;28;20211;-71
2021/06/23 13:11:31;;;;;;;0.60;0.60;;;21.00;99.90;;;;;;5048371;28;20284;-73